createdAt,value
2023-02-18T00:04:13.275Z,1008.1
2023-02-18T00:09:19.343Z,1008.1
2023-02-18T00:14:25.456Z,1008.1
2023-02-18T00:19:31.544Z,1008.1
2023-02-18T00:24:37.639Z,1008.1
2023-02-18T00:29:43.731Z,1008.2
2023-02-18T00:34:48.886Z,1007.9
2023-02-18T00:39:53.957Z,1008
2023-02-18T00:45:00.068Z,1008.1
2023-02-18T00:50:06.173Z,1008.2
2023-02-18T00:55:11.255Z,1008.2
2023-02-18T01:00:16.444Z,1008.2
2023-02-18T01:05:22.481Z,1008.1
2023-02-18T01:10:28.588Z,1008.1
2023-02-18T01:15:34.656Z,1008
2023-02-18T01:20:40.816Z,1008.1
2023-02-18T01:25:46.988Z,1008
2023-02-18T01:30:52.943Z,1008
2023-02-18T01:35:59.060Z,1007.9
2023-02-18T01:41:05.152Z,1008.1
2023-02-18T01:46:11.237Z,1008.1
2023-02-18T01:51:17.325Z,1008.2
2023-02-18T01:56:23.430Z,1008.1
2023-02-18T02:01:29.591Z,1008.2
2023-02-18T02:06:34.638Z,1008.2
2023-02-18T02:11:40.734Z,1008.3
2023-02-18T02:16:46.820Z,1008.2
2023-02-18T02:21:52.937Z,1008.2
2023-02-18T02:26:59.016Z,1008.2
2023-02-18T02:32:05.142Z,1008.1
2023-02-18T02:37:11.227Z,1008
2023-02-18T02:42:16.338Z,1008
2023-02-18T02:47:21.446Z,1007.9
2023-02-18T02:52:27.533Z,1007.9
2023-02-18T02:57:32.676Z,1007.9
2023-02-18T03:02:37.768Z,1007.9
2023-02-18T03:07:43.860Z,1007.8
2023-02-18T03:12:49.954Z,1007.8
2023-02-18T03:17:56.063Z,1007.8
2023-02-18T03:23:01.160Z,1007.8
2023-02-18T03:28:07.266Z,1007.8
2023-02-18T03:33:13.381Z,1007.7
2023-02-18T03:38:19.462Z,1007.6
2023-02-18T03:43:25.597Z,1007.6
2023-02-18T03:48:31.640Z,1007.6
2023-02-18T03:53:37.759Z,1007.6
2023-02-18T03:58:43.849Z,1007.6
2023-02-18T04:03:49.951Z,1007.5
2023-02-18T04:08:56.017Z,1007.6
2023-02-18T04:14:02.150Z,1007.6
2023-02-18T04:19:08.214Z,1007.7
2023-02-18T04:24:14.323Z,1007.7
2023-02-18T04:29:19.432Z,1007.6
2023-02-18T04:34:25.513Z,1007.5
2023-02-18T04:39:31.619Z,1007.4
2023-02-18T04:44:37.721Z,1007.3
2023-02-18T04:49:43.830Z,1007.3
2023-02-18T04:54:49.907Z,1007.1
2023-02-18T04:59:56.013Z,1007.2
2023-02-18T05:05:02.117Z,1007.1
2023-02-18T05:10:08.229Z,1007
2023-02-18T05:15:14.331Z,1007
2023-02-18T05:20:20.430Z,1006.8
2023-02-18T05:25:26.482Z,1006.6
2023-02-18T05:30:32.598Z,1006.6
2023-02-18T05:35:37.723Z,1006.4
2023-02-18T05:40:43.791Z,1006.4
2023-02-18T05:45:49.896Z,1006.4
2023-02-18T05:50:55.985Z,1006.4
2023-02-18T05:56:02.069Z,1006.4
2023-02-18T06:01:08.175Z,1006.3
2023-02-18T06:06:14.277Z,1006.3
2023-02-18T06:11:20.360Z,1006.3
2023-02-18T06:16:26.464Z,1006.3
2023-02-18T06:21:32.592Z,1006.1
2023-02-18T06:26:38.657Z,1006
2023-02-18T06:31:44.775Z,1006.1
2023-02-18T06:36:50.847Z,1006
2023-02-18T06:41:55.960Z,1006
2023-02-18T06:47:02.064Z,1005.8
2023-02-18T06:52:08.132Z,1005.8
2023-02-18T06:57:14.305Z,1005.7
2023-02-18T07:02:20.352Z,1005.6
2023-02-18T07:07:26.436Z,1005.5
2023-02-18T07:12:32.519Z,1005.4
2023-02-18T07:17:38.628Z,1005.4
2023-02-18T07:22:44.718Z,1005.3
2023-02-18T07:27:50.827Z,1005.2
2023-02-18T07:32:56.906Z,1005.1
2023-02-18T07:38:03.163Z,1004.9
2023-02-18T07:43:09.087Z,1004.9
2023-02-18T07:48:14.380Z,1004.9
2023-02-18T07:53:20.312Z,1004.8
2023-02-18T07:58:26.566Z,1004.8
2023-02-18T08:03:32.553Z,1004.6
2023-02-18T08:08:38.768Z,1004.7
2023-02-18T08:13:44.709Z,1004.5
2023-02-18T08:18:50.929Z,1004.4
2023-02-18T08:23:56.879Z,1004.5
2023-02-18T08:29:03.000Z,1004.4
2023-02-18T08:34:09.188Z,1004.4
2023-02-18T08:39:15.181Z,1004.3
2023-02-18T08:44:21.281Z,1004.2
2023-02-18T08:49:27.450Z,1004.1
2023-02-18T08:54:32.496Z,1003.9
2023-02-18T08:59:38.624Z,1003.6
2023-02-18T09:04:44.668Z,1003.9
2023-02-18T09:09:50.764Z,1003.9
2023-02-18T09:14:56.864Z,1003.9
2023-02-18T09:20:02.955Z,1003.8
2023-02-18T09:25:09.058Z,1003.7
2023-02-18T09:30:15.167Z,1003.6
2023-02-18T09:35:21.259Z,1003.6
2023-02-18T09:40:27.395Z,1003.3
2023-02-18T09:45:33.469Z,1003.1
2023-02-18T09:50:39.510Z,1002.9
2023-02-18T09:55:45.630Z,1003.1
2023-02-18T10:00:50.718Z,1003
2023-02-18T10:05:56.902Z,1003
2023-02-18T10:11:02.921Z,1002.9
2023-02-18T10:16:09.025Z,1002.9
2023-02-18T10:21:15.179Z,1002.8
2023-02-18T10:26:21.196Z,1002.6
2023-02-18T10:31:27.295Z,1002.6
2023-02-18T10:36:32.464Z,1002.6
2023-02-18T10:41:37.532Z,1002.6
2023-02-18T10:46:42.674Z,1002.7
2023-02-18T10:51:47.768Z,1002.5
2023-02-18T10:56:53.858Z,1002.3
2023-02-18T11:01:59.948Z,1002.5
2023-02-18T11:07:06.033Z,1002.3
2023-02-18T11:12:12.138Z,1002.2
2023-02-18T11:17:18.246Z,1002.4
2023-02-18T11:22:24.335Z,1002.3
2023-02-18T11:27:30.504Z,1002.2
2023-02-18T11:32:36.538Z,1002.3
2023-02-18T11:37:42.611Z,1002
2023-02-18T11:42:48.725Z,1001.9
2023-02-18T11:47:54.804Z,1002.1
2023-02-18T11:53:00.935Z,1002
2023-02-18T11:58:06.051Z,1002
2023-02-18T12:03:12.114Z,1001.9
2023-02-18T12:08:18.197Z,1001.9
2023-02-18T12:13:24.344Z,1001.8
2023-02-18T12:18:30.419Z,1001.8
2023-02-18T12:23:36.510Z,1001.6
2023-02-18T12:28:42.628Z,1001.3
2023-02-18T12:33:47.898Z,1001.2
2023-02-18T12:38:52.836Z,1001.3
2023-02-18T12:43:58.907Z,1001.4
2023-02-18T12:49:05.000Z,1001.6
2023-02-18T12:54:11.272Z,1001.8
2023-02-18T12:59:17.228Z,1001.5
2023-02-18T13:04:23.377Z,1001.6
2023-02-18T13:09:28.515Z,1001.7
2023-02-18T13:14:33.525Z,1001.7
2023-02-18T13:19:39.717Z,1001.6
2023-02-18T13:24:45.914Z,1001.8
2023-02-18T13:29:51.824Z,1001.9
2023-02-18T13:34:57.995Z,1002
2023-02-18T13:40:04.053Z,1001.8
2023-02-18T13:45:10.131Z,1001.9
2023-02-18T13:50:16.246Z,1002
2023-02-18T13:55:22.361Z,1001.9
2023-02-18T14:00:28.403Z,1001.9
2023-02-18T14:05:34.480Z,1002
2023-02-18T14:10:40.598Z,1002.1
2023-02-18T14:15:46.695Z,1002.1
2023-02-18T14:20:51.796Z,1002.1
2023-02-18T14:25:57.894Z,1002.1
2023-02-18T14:31:03.979Z,1002
2023-02-18T14:36:10.076Z,1002.2
2023-02-18T14:41:16.168Z,1002.3
2023-02-18T14:46:22.265Z,1002.4
2023-02-18T14:51:28.383Z,1002.4
2023-02-18T14:56:34.456Z,1002.4
2023-02-18T15:01:40.596Z,1002.3
2023-02-18T15:06:46.751Z,1002.4
2023-02-18T15:11:52.816Z,1002.4
2023-02-18T15:16:58.892Z,1002.5
2023-02-18T15:22:04.929Z,1002.5
2023-02-18T15:27:10.086Z,1002.6
2023-02-18T15:32:16.137Z,1002.6
2023-02-18T15:37:22.243Z,1002.7
2023-02-18T15:42:28.355Z,1002.8
2023-02-18T15:47:34.435Z,1002.8
2023-02-18T15:52:40.513Z,1002.9
2023-02-18T15:57:46.611Z,1002.9
2023-02-18T16:02:52.700Z,1002.9
2023-02-18T16:07:58.842Z,1002.9
2023-02-18T16:13:04.907Z,1002.9
2023-02-18T16:18:10.991Z,1003
2023-02-18T16:23:17.133Z,1002.9
2023-02-18T16:28:23.195Z,1003
2023-02-18T16:33:28.324Z,1003.1
2023-02-18T16:38:34.403Z,1003.1
2023-02-18T16:43:40.515Z,1003.2
2023-02-18T16:48:46.599Z,1003.2
2023-02-18T16:53:52.828Z,1003.3
2023-02-18T16:58:58.812Z,1003.5
2023-02-18T17:04:04.880Z,1003.5
2023-02-18T17:09:10.976Z,1003.6
2023-02-18T17:14:16.083Z,1003.8
2023-02-18T17:19:21.193Z,1003.9
2023-02-18T17:24:27.279Z,1003.9
2023-02-18T17:29:33.387Z,1003.9
2023-02-18T17:34:38.521Z,1004
2023-02-18T17:39:43.606Z,1004.2
2023-02-18T17:44:49.726Z,1004.3
2023-02-18T17:49:55.806Z,1004.3
2023-02-18T17:55:01.904Z,1004.3
2023-02-18T18:00:07.999Z,1004.3
2023-02-18T18:05:14.095Z,1004.4
2023-02-18T18:10:20.199Z,1004.4
2023-02-18T18:15:26.302Z,1004.5
2023-02-18T18:20:32.378Z,1004.5
2023-02-18T18:25:38.494Z,1004.6
2023-02-18T18:30:44.574Z,1004.6
2023-02-18T18:35:50.716Z,1004.6
2023-02-18T18:40:56.770Z,1004.6
2023-02-18T18:46:01.881Z,1004.6
2023-02-18T18:51:08.090Z,1004.7
2023-02-18T18:56:14.189Z,1004.6
2023-02-18T19:01:20.300Z,1004.6
2023-02-18T19:06:26.344Z,1004.7
2023-02-18T19:11:32.355Z,1004.6
2023-02-18T19:16:38.527Z,1004.6
2023-02-18T19:21:44.528Z,1004.6
2023-02-18T19:26:50.683Z,1004.7
2023-02-18T19:31:56.745Z,1004.7
2023-02-18T19:37:02.845Z,1004.6
2023-02-18T19:42:08.927Z,1004.7
2023-02-18T19:47:15.025Z,1004.8
2023-02-18T19:52:20.131Z,1004.8
2023-02-18T19:57:26.222Z,1004.8
2023-02-18T20:02:32.315Z,1004.9
2023-02-18T20:07:38.478Z,1004.9
2023-02-18T20:12:44.511Z,1004.9
2023-02-18T20:17:50.622Z,1005
2023-02-18T20:22:56.791Z,1005.1
2023-02-18T20:28:01.928Z,1005.1
2023-02-18T20:33:07.953Z,1005.1
2023-02-18T20:38:14.177Z,1005.1
2023-02-18T20:43:20.118Z,1005.1
2023-02-18T20:48:26.195Z,1005.1
2023-02-18T20:53:32.305Z,1005
2023-02-18T20:58:38.416Z,1005.1
2023-02-18T21:03:44.482Z,1005.1
2023-02-18T21:08:50.642Z,1005.1
2023-02-18T21:13:56.687Z,1005.1
2023-02-18T21:19:02.781Z,1005.1
2023-02-18T21:24:08.872Z,1005.1
2023-02-18T21:29:15.039Z,1005
2023-02-18T21:34:20.074Z,1005
2023-02-18T21:39:26.207Z,1004.9
2023-02-18T21:44:32.254Z,1005.1
2023-02-18T21:49:38.421Z,1005
2023-02-18T21:54:44.469Z,1005.1
2023-02-18T21:59:50.611Z,1005.1
2023-02-18T22:04:56.681Z,1005.1
2023-02-18T22:10:02.763Z,1005
2023-02-18T22:15:08.890Z,1004.8
2023-02-18T22:20:14.955Z,1004.9
2023-02-18T22:25:21.128Z,1004.8
2023-02-18T22:30:27.144Z,1004.9
2023-02-18T22:35:33.224Z,1005
2023-02-18T22:40:38.336Z,1005
2023-02-18T22:45:44.414Z,1004.9
2023-02-18T22:50:50.544Z,1004.9
2023-02-18T22:55:56.615Z,1005
2023-02-18T23:01:02.847Z,1004.9
2023-02-18T23:06:08.819Z,1005
2023-02-18T23:11:14.892Z,1004.9
2023-02-18T23:16:20.989Z,1004.9
2023-02-18T23:21:27.155Z,1004.9
2023-02-18T23:26:33.195Z,1004.9
2023-02-18T23:31:39.274Z,1004.8
2023-02-18T23:36:45.420Z,1004.8
2023-02-18T23:41:51.608Z,1004.7
2023-02-18T23:46:56.628Z,1004.7
2023-02-18T23:52:02.697Z,1004.6
2023-02-18T23:57:08.806Z,1004.6
